Time;durP1;ratioP1;P1;durP2;ratioP2;P2;SDS_P1;SDS_P2;PMS_P1;PMS_P2;Temp;Humidity;BMP_temperature;BMP_pressure;BME280_temperature;BME280_humidity;BME280_pressure;Samples;Min_cycle;Max_cycle;Signal;HPM_P1;HPM_P2
2023/06/09 00:01:44;;;;;;;18.30;13.23;;;14.50;76.50;;;;;;5012452;28;20181;-86
2023/06/09 00:04:12;;;;;;;18.35;12.73;;;14.50;76.70;;;;;;5013701;28;20519;-86
2023/06/09 00:06:39;;;;;;;15.63;12.77;;;14.40;76.90;;;;;;5012501;28;20193;-86
2023/06/09 00:09:06;;;;;;;18.02;12.60;;;14.40;77.00;;;;;;5012369;28;20200;-86
2023/06/09 00:11:31;;;;;;;15.07;11.77;;;14.30;77.10;;;;;;5012694;28;20174;-86
2023/06/09 00:13:57;;;;;;;17.33;11.98;;;14.30;77.20;;;;;;5013461;28;20272;-87
2023/06/09 00:16:23;;;;;;;17.05;11.38;;;14.20;77.30;;;;;;5013637;28;20177;-87
2023/06/09 00:18:50;;;;;;;14.82;11.23;;;14.20;77.40;;;;;;5015615;28;20252;-87
2023/06/09 00:21:17;;;;;;;18.10;12.20;;;14.10;77.50;;;;;;5013422;28;20235;-86
2023/06/09 00:23:44;;;;;;;14.80;11.97;;;14.00;77.60;;;;;;5013382;28;20233;-87
2023/06/09 00:26:11;;;;;;;14.93;12.27;;;14.00;78.00;;;;;;5012184;28;20540;-87
2023/06/09 00:28:37;;;;;;;15.10;12.30;;;14.00;78.00;;;;;;5012163;28;20178;-87
2023/06/09 00:31:02;;;;;;;14.53;12.10;;;14.00;77.90;;;;;;5012132;28;20643;-86
2023/06/09 00:33:28;;;;;;;17.33;13.00;;;13.90;77.80;;;;;;5012034;28;20228;-86
2023/06/09 00:35:53;;;;;;;17.43;13.10;;;13.80;78.40;;;;;;5013664;28;20209;-87
2023/06/09 00:38:19;;;;;;;14.17;10.87;;;13.80;78.40;;;;;;5013188;28;20302;-87
2023/06/09 00:40:44;;;;;;;14.70;11.77;;;13.90;78.50;;;;;;5013270;28;20638;-87
2023/06/09 00:43:10;;;;;;;18.60;11.60;;;13.80;78.60;;;;;;5012012;28;20193;-86
2023/06/09 00:45:35;;;;;;;16.90;10.87;;;13.80;79.10;;;;;;5011989;28;20188;-87
2023/06/09 00:48:01;;;;;;;15.70;11.53;;;13.70;80.90;;;;;;5012093;28;20260;-86
2023/06/09 00:50:27;;;;;;;12.03;10.10;;;13.70;81.90;;;;;;5016008;28;20692;-86
2023/06/09 00:52:55;;;;;;;14.70;10.37;;;13.70;81.20;;;;;;5017115;28;20243;-87
2023/06/09 00:55:21;;;;;;;14.67;11.03;;;13.80;80.60;;;;;;5015832;28;20184;-87
2023/06/09 00:57:55;;;;;;;14.87;10.83;;;13.80;80.30;;;;;;5017039;28;20617;-87
2023/06/09 01:00:26;;;;;;;15.67;10.23;;;13.70;80.00;;;;;;5017140;28;20154;-87
2023/06/09 01:02:53;;;;;;;16.33;10.87;;;13.70;79.90;;;;;;5017031;28;20256;-86
2023/06/09 01:05:19;;;;;;;19.90;11.43;;;13.70;79.80;;;;;;5017065;28;20212;-86
2023/06/09 01:07:54;;;;;;;18.83;10.77;;;13.70;79.70;;;;;;5015859;28;20177;-87
2023/06/09 01:10:38;;;;;;;13.33;9.93;;;13.60;79.70;;;;;;5016955;28;20165;-87
2023/06/09 01:13:36;;;;;;;13.67;10.60;;;13.50;79.60;;;;;;5016783;28;20213;-86
2023/06/09 01:16:12;;;;;;;16.77;11.17;;;13.50;79.60;;;;;;5017013;28;20292;-87
2023/06/09 01:18:42;;;;;;;18.40;10.27;;;13.40;79.60;;;;;;5015534;28;20201;-86
2023/06/09 01:21:35;;;;;;;16.73;10.40;;;13.40;79.50;;;;;;5015481;28;20185;-86
2023/06/09 01:24:14;;;;;;;14.87;10.27;;;13.30;79.40;;;;;;5016692;28;20153;-87
2023/06/09 01:26:40;;;;;;;14.93;10.30;;;13.30;79.40;;;;;;5016921;28;20274;-86
2023/06/09 01:29:06;;;;;;;14.67;10.80;;;13.30;79.50;;;;;;5016572;28;20197;-87
2023/06/09 01:31:33;;;;;;;13.13;11.37;;;13.20;79.50;;;;;;5015265;28;20271;-86
2023/06/09 01:34:00;;;;;;;14.57;11.57;;;13.20;79.60;;;;;;5016580;28;20200;-87
2023/06/09 01:36:26;;;;;;;24.87;12.23;;;13.30;79.70;;;;;;5016464;28;20177;-87
2023/06/09 01:38:52;;;;;;;13.90;11.90;;;13.20;79.80;;;;;;5016315;28;20257;-86
2023/06/09 01:41:17;;;;;;;20.50;10.77;;;13.20;80.00;;;;;;5016413;28;20586;-86
2023/06/09 01:43:43;;;;;;;16.63;10.30;;;13.20;80.00;;;;;;5016224;28;20201;-87
2023/06/09 01:46:09;;;;;;;18.00;10.67;;;13.10;80.00;;;;;;5016195;28;20184;-87
2023/06/09 01:48:34;;;;;;;14.60;10.93;;;13.10;80.00;;;;;;5016405;28;20227;-86
2023/06/09 01:51:08;;;;;;;22.37;13.23;;;13.00;80.00;;;;;;5014949;28;20236;-87
2023/06/09 01:53:37;;;;;;;18.73;12.80;;;13.00;80.50;;;;;;5014982;28;20232;-87
2023/06/09 01:56:36;;;;;;;20.50;12.90;;;12.80;81.40;;;;;;5016100;28;20209;-87
2023/06/09 01:59:06;;;;;;;17.73;11.77;;;12.60;82.10;;;;;;5014694;28;20240;-87
2023/06/09 02:01:33;;;;;;;16.87;10.67;;;12.50;82.90;;;;;;5015485;28;20177;-86
2023/06/09 02:04:02;;;;;;;15.40;9.80;;;12.40;83.40;;;;;;5014712;28;20177;-87
2023/06/09 02:06:28;;;;;;;19.80;10.67;;;12.40;83.50;;;;;;5015787;28;20174;-86
2023/06/09 02:08:53;;;;;;;13.20;9.43;;;12.40;83.60;;;;;;5014584;28;20189;-86
2023/06/09 02:11:19;;;;;;;17.37;9.63;;;12.50;83.40;;;;;;5014517;28;20545;-86
2023/06/09 02:13:55;;;;;;;16.17;9.40;;;12.50;83.20;;;;;;5014265;28;20217;-86
2023/06/09 02:16:21;;;;;;;15.37;9.47;;;12.40;83.10;;;;;;5015692;28;20164;-86
2023/06/09 02:18:48;;;;;;;16.47;10.37;;;12.40;82.90;;;;;;5014410;28;20205;-86
2023/06/09 02:21:14;;;;;;;17.03;9.80;;;12.40;82.60;;;;;;5014415;28;20189;-86
2023/06/09 02:23:40;;;;;;;21.63;10.73;;;12.40;82.20;;;;;;5015494;28;20200;-86
2023/06/09 02:26:06;;;;;;;20.10;11.00;;;12.30;81.90;;;;;;5015174;28;20181;-87
2023/06/09 02:28:32;;;;;;;19.60;11.33;;;12.30;82.40;;;;;;5015427;28;20169;-86
2023/06/09 02:30:58;;;;;;;23.17;11.57;;;12.30;82.10;;;;;;5015648;28;20188;-87
2023/06/09 02:33:24;;;;;;;39.07;12.13;;;12.30;81.80;;;;;;5015177;28;20208;-86
2023/06/09 02:35:50;;;;;;;26.03;13.00;;;12.30;82.00;;;;;;5014110;28;20713;-86
2023/06/09 02:38:15;;;;;;;23.57;10.80;;;12.30;82.00;;;;;;5015242;28;20205;-87
2023/06/09 02:40:49;;;;;;;15.23;9.80;;;12.30;82.00;;;;;;5013987;28;20178;-87
2023/06/09 02:43:15;;;;;;;14.33;11.40;;;12.30;82.00;;;;;;5015020;28;20189;-86
2023/06/09 02:45:40;;;;;;;18.13;11.33;;;12.20;81.90;;;;;;5015122;28;20174;-86
2023/06/09 02:48:06;;;;;;;18.33;9.97;;;12.20;81.90;;;;;;5013795;28;20755;-86
2023/06/09 02:50:32;;;;;;;22.80;10.57;;;12.20;81.70;;;;;;5015073;28;20207;-86
2023/06/09 02:52:57;;;;;;;17.27;10.40;;;12.20;81.50;;;;;;5014913;28;20680;-86
2023/06/09 02:55:23;;;;;;;21.40;9.93;;;12.10;81.40;;;;;;5014974;28;20652;-86
2023/06/09 02:57:49;;;;;;;16.73;10.40;;;12.10;81.30;;;;;;5013494;28;20294;-86
2023/06/09 03:00:15;;;;;;;23.77;12.00;;;12.00;81.30;;;;;;5013635;28;20182;-86
2023/06/09 03:02:41;;;;;;;27.47;12.87;;;12.00;81.30;;;;;;5014106;28;20208;-86
2023/06/09 03:05:08;;;;;;;23.53;13.30;;;12.00;82.00;;;;;;5013430;28;20264;-86
2023/06/09 03:07:34;;;;;;;18.60;13.33;;;12.10;82.60;;;;;;5013471;28;20239;-87
2023/06/09 03:10:00;;;;;;;25.00;14.30;;;12.20;83.80;;;;;;5014566;28;20173;-86
2023/06/09 03:12:25;;;;;;;38.07;14.00;;;12.30;84.70;;;;;;5014710;28;20213;-86
2023/06/09 03:14:51;;;;;;;25.80;12.67;;;12.30;85.00;;;;;;5013482;28;20174;-86
2023/06/09 03:17:19;;;;;;;30.10;13.43;;;12.30;85.40;;;;;;5013193;28;20208;-86
2023/06/09 03:19:45;;;;;;;22.20;13.17;;;12.40;85.60;;;;;;5013394;28;20196;-86
2023/06/09 03:22:11;;;;;;;24.20;12.13;;;12.40;85.80;;;;;;5013261;28;20659;-86
2023/06/09 03:24:36;;;;;;;26.53;11.97;;;12.50;85.70;;;;;;5013164;28;20177;-87
2023/06/09 03:27:02;;;;;;;26.27;13.33;;;12.40;85.70;;;;;;5013171;28;20188;-86
2023/06/09 03:29:28;;;;;;;31.70;13.40;;;12.30;85.70;;;;;;5013096;28;20200;-86
2023/06/09 03:31:55;;;;;;;27.27;12.93;;;12.10;85.80;;;;;;5013091;28;20667;-87
2023/06/09 03:34:20;;;;;;;27.00;11.97;;;11.90;86.00;;;;;;5014356;28;20177;-86
2023/06/09 03:36:46;;;;;;;33.13;13.10;;;11.80;86.30;;;;;;5014409;28;20207;-86
2023/06/09 03:39:11;;;;;;;34.33;13.57;;;11.80;86.50;;;;;;5012899;28;20181;-86
2023/06/09 03:41:37;;;;;;;21.97;11.83;;;11.90;86.60;;;;;;5014362;28;20196;-86
2023/06/09 03:44:03;;;;;;;18.00;11.77;;;11.90;86.60;;;;;;5014278;28;20173;-87
2023/06/09 03:46:29;;;;;;;19.53;11.80;;;11.90;86.50;;;;;;5014148;28;20209;-87
2023/06/09 03:48:54;;;;;;;23.43;12.33;;;12.00;86.40;;;;;;5013044;28;20177;-86
2023/06/09 03:51:20;;;;;;;26.03;11.73;;;12.00;86.40;;;;;;5014381;28;20177;-86
2023/06/09 03:53:46;;;;;;;30.23;13.17;;;12.00;86.50;;;;;;5012858;28;20206;-86
2023/06/09 03:56:13;;;;;;;21.57;11.80;;;12.10;86.70;;;;;;5013911;28;20670;-86
2023/06/09 03:58:38;;;;;;;25.50;11.63;;;12.10;86.90;;;;;;5012728;28;20209;-86
2023/06/09 04:01:04;;;;;;;22.20;12.53;;;12.20;87.10;;;;;;5012657;28;20238;-86
2023/06/09 04:03:30;;;;;;;24.37;12.00;;;12.30;87.20;;;;;;5013866;28;20201;-86
2023/06/09 04:05:55;;;;;;;32.67;12.90;;;12.40;87.40;;;;;;5012737;28;20181;-87
2023/06/09 04:08:21;;;;;;;21.83;11.70;;;12.50;87.40;;;;;;5013743;28;20186;-86
2023/06/09 04:10:46;;;;;;;26.70;13.77;;;12.60;87.40;;;;;;5013723;28;20182;-86
2023/06/09 04:13:12;;;;;;;30.07;13.43;;;12.70;87.40;;;;;;5012784;28;20244;-86
2023/06/09 04:15:38;;;;;;;22.40;11.20;;;12.80;87.30;;;;;;5013762;28;20181;-86
2023/06/09 04:18:03;;;;;;;22.63;11.37;;;12.80;87.30;;;;;;5013108;28;20310;-87
2023/06/09 04:20:29;;;;;;;27.13;11.83;;;12.90;87.30;;;;;;5013602;28;20750;-86
2023/06/09 04:22:55;;;;;;;24.27;13.13;;;12.80;87.30;;;;;;5013191;28;20197;-86
2023/06/09 04:25:25;;;;;;;23.03;12.63;;;12.90;87.40;;;;;;5013475;28;20174;-86
2023/06/09 04:27:54;;;;;;;20.63;11.83;;;12.90;87.40;;;;;;5013650;28;20670;-86
2023/06/09 04:30:29;;;;;;;23.13;13.20;;;13.00;87.60;;;;;;5012189;28;20185;-86
2023/06/09 04:32:58;;;;;;;25.10;11.67;;;13.00;87.70;;;;;;5012227;28;20251;-86
2023/06/09 04:35:24;;;;;;;24.80;12.00;;;13.00;87.80;;;;;;5013411;28;20212;-86
2023/06/09 04:37:50;;;;;;;22.50;12.20;;;13.10;87.80;;;;;;5013416;28;20263;-86
2023/06/09 04:40:22;;;;;;;30.10;13.53;;;13.20;87.70;;;;;;5012042;28;20177;-86
2023/06/09 04:42:52;;;;;;;19.73;11.97;;;13.20;87.70;;;;;;5011939;28;20671;-87
2023/06/09 04:45:27;;;;;;;26.33;12.13;;;13.30;87.70;;;;;;5012334;28;20667;-86
2023/06/09 04:47:59;;;;;;;23.67;11.97;;;13.30;87.70;;;;;;5013379;28;20160;-87
2023/06/09 04:50:25;;;;;;;23.17;12.13;;;13.30;87.60;;;;;;5013373;28;20161;-86
2023/06/09 04:52:51;;;;;;;24.53;12.07;;;13.40;87.60;;;;;;5011992;28;20194;-86
2023/06/09 04:55:17;;;;;;;22.87;11.77;;;13.50;87.70;;;;;;5011952;28;20189;-86
2023/06/09 04:57:43;;;;;;;19.27;11.50;;;13.50;87.70;;;;;;5012653;28;20221;-86
2023/06/09 05:00:16;;;;;;;22.77;11.90;;;13.60;87.70;;;;;;5011907;28;20227;-86
2023/06/09 05:02:42;;;;;;;21.60;11.87;;;13.70;87.80;;;;;;5011868;28;20193;-87
2023/06/09 05:05:09;;;;;;;25.00;11.83;;;13.80;87.60;;;;;;5013116;28;20177;-86
2023/06/09 05:07:35;;;;;;;21.23;12.10;;;13.80;87.60;;;;;;5013397;28;20726;-87
2023/06/09 05:10:01;;;;;;;29.47;12.17;;;13.90;87.50;;;;;;5011930;28;20201;-86
2023/06/09 05:12:27;;;;;;;24.67;12.37;;;13.90;87.40;;;;;;5012879;28;20268;-86
2023/06/09 05:14:52;;;;;;;20.57;12.00;;;14.00;87.50;;;;;;5013346;28;20158;-86
2023/06/09 05:17:18;;;;;;;28.47;13.10;;;14.10;87.50;;;;;;5012904;28;20205;-87
2023/06/09 05:19:43;;;;;;;20.47;11.17;;;14.20;87.30;;;;;;5012977;28;20242;-87
2023/06/09 05:22:09;;;;;;;21.20;11.77;;;14.30;87.50;;;;;;5011775;28;20204;-86
2023/06/09 05:24:35;;;;;;;20.37;11.27;;;14.40;87.50;;;;;;5013116;28;20181;-87
2023/06/09 05:27:00;;;;;;;19.47;11.87;;;14.50;87.00;;;;;;5011958;28;20186;-87
2023/06/09 05:29:26;;;;;;;21.07;11.50;;;14.60;86.90;;;;;;5012859;28;20677;-87
2023/06/09 05:31:51;;;;;;;26.13;12.30;;;14.80;86.70;;;;;;5011509;28;20189;-86
2023/06/09 05:34:17;;;;;;;19.47;11.47;;;14.80;86.50;;;;;;5012824;28;20178;-87
2023/06/09 05:36:42;;;;;;;17.80;11.20;;;15.00;86.40;;;;;;5015202;28;20225;-87
2023/06/09 05:39:08;;;;;;;26.80;10.33;;;15.10;85.60;;;;;;5014978;28;20310;-86
2023/06/09 05:41:33;;;;;;;32.30;11.10;;;15.20;84.30;;;;;;5016374;28;20181;-86
2023/06/09 05:43:59;;;;;;;17.40;10.82;;;15.40;84.10;;;;;;5015272;28;20181;-87
2023/06/09 05:46:25;;;;;;;19.83;10.10;;;15.50;83.30;;;;;;5015225;28;20173;-87
2023/06/09 05:48:51;;;;;;;30.67;11.05;;;15.60;82.90;;;;;;5016321;28;20677;-87
2023/06/09 05:51:17;;;;;;;20.38;10.68;;;15.70;83.10;;;;;;5015009;28;20181;-87
2023/06/09 05:53:43;;;;;;;25.58;11.77;;;15.80;82.20;;;;;;5014837;28;20201;-87
2023/06/09 05:56:09;;;;;;;25.55;10.00;;;16.00;82.30;;;;;;5016096;28;20189;-87
2023/06/09 05:58:35;;;;;;;16.05;10.25;;;16.10;82.00;;;;;;5016035;28;20269;-87
2023/06/09 06:01:03;;;;;;;18.38;9.60;;;16.20;81.50;;;;;;5016059;28;20229;-86
2023/06/09 06:03:29;;;;;;;27.48;10.38;;;16.30;81.10;;;;;;5015834;28;20197;-87
2023/06/09 06:05:55;;;;;;;21.35;10.55;;;16.30;80.90;;;;;;5014705;28;20208;-87
2023/06/09 06:08:20;;;;;;;19.50;10.80;;;16.30;80.30;;;;;;5016063;28;20185;-87
2023/06/09 06:10:46;;;;;;;20.88;12.10;;;16.40;80.20;;;;;;5015706;28;20316;-87
2023/06/09 06:13:13;;;;;;;14.20;10.82;;;16.60;80.10;;;;;;5014243;28;20217;-87
2023/06/09 06:15:38;;;;;;;20.80;11.63;;;16.70;79.90;;;;;;5014475;28;20717;-87
2023/06/09 06:18:04;;;;;;;21.65;12.05;;;16.80;79.50;;;;;;5015804;28;20209;-87
2023/06/09 06:20:30;;;;;;;19.17;11.80;;;17.00;79.10;;;;;;5014430;28;20180;-87
2023/06/09 06:22:55;;;;;;;21.17;11.07;;;17.10;78.20;;;;;;5014219;28;20196;-87
2023/06/09 06:25:21;;;;;;;27.85;11.93;;;17.20;77.40;;;;;;5014349;28;20208;-86
2023/06/09 06:27:46;;;;;;;21.95;11.48;;;17.20;76.90;;;;;;5014300;28;20183;-87
2023/06/09 06:30:13;;;;;;;14.57;9.18;;;17.30;76.30;;;;;;5015423;28;20522;-87
2023/06/09 06:32:47;;;;;;;18.33;10.52;;;17.50;76.80;;;;;;5015332;28;20197;-86
2023/06/09 06:35:21;;;;;;;19.58;10.98;;;17.50;75.60;;;;;;5015425;28;20168;-86
2023/06/09 06:37:47;;;;;;;17.63;11.00;;;17.70;76.30;;;;;;5014111;28;20199;-87
2023/06/09 06:40:13;;;;;;;14.85;10.50;;;17.80;75.70;;;;;;5013961;28;20173;-87
2023/06/09 06:42:40;;;;;;;17.35;10.73;;;17.80;74.60;;;;;;5013878;28;20217;-87
2023/06/09 06:45:06;;;;;;;16.23;10.48;;;17.90;73.40;;;;;;5013994;28;20181;-87
2023/06/09 06:47:31;;;;;;;11.88;10.38;;;18.00;74.50;;;;;;5015140;28;20193;-87
2023/06/09 06:49:57;;;;;;;21.52;11.45;;;18.20;73.10;;;;;;5013803;28;20212;-87
2023/06/09 06:52:22;;;;;;;19.10;11.40;;;18.20;73.60;;;;;;5015011;28;20276;-87
2023/06/09 06:54:48;;;;;;;18.92;10.20;;;18.30;73.30;;;;;;5015304;28;20180;-87
2023/06/09 06:57:14;;;;;;;14.02;11.07;;;18.40;71.90;;;;;;5014848;28;20213;-87
2023/06/09 06:59:39;;;;;;;16.60;11.75;;;18.60;72.90;;;;;;5013658;28;20608;-87
2023/06/09 07:02:05;;;;;;;14.52;11.10;;;18.60;73.00;;;;;;5013613;28;20200;-87
2023/06/09 07:04:31;;;;;;;17.58;10.90;;;18.80;73.50;;;;;;5013503;28;20169;-87
2023/06/09 07:06:56;;;;;;;15.48;11.35;;;18.80;72.00;;;;;;5014916;28;20231;-87
2023/06/09 07:09:22;;;;;;;13.60;10.07;;;18.90;72.20;;;;;;5013766;28;20173;-87
2023/06/09 07:11:48;;;;;;;16.48;10.75;;;19.00;71.60;;;;;;5014544;28;20161;-87
2023/06/09 07:14:13;;;;;;;17.15;12.02;;;19.20;71.20;;;;;;5013244;28;20537;-87
2023/06/09 07:16:39;;;;;;;12.55;11.15;;;19.20;70.40;;;;;;5013355;28;20208;-87
2023/06/09 07:19:04;;;;;;;22.70;11.38;;;19.30;69.30;;;;;;5013361;28;20197;-87
2023/06/09 07:21:32;;;;;;;13.32;11.50;;;19.40;69.90;;;;;;5014356;28;20166;-87
2023/06/09 07:23:58;;;;;;;20.38;11.95;;;19.60;68.90;;;;;;5014441;28;20173;-87
2023/06/09 07:26:23;;;;;;;21.42;12.38;;;19.70;69.00;;;;;;5014444;28;20165;-87
2023/06/09 07:28:49;;;;;;;18.25;12.23;;;19.80;67.90;;;;;;5014365;28;20185;-87
2023/06/09 07:31:15;;;;;;;17.67;12.25;;;20.00;68.50;;;;;;5013063;28;20200;-87
2023/06/09 07:33:41;;;;;;;16.83;12.73;;;20.20;68.00;;;;;;5014310;28;20189;-87
2023/06/09 07:36:10;;;;;;;14.93;12.55;;;20.20;67.50;;;;;;5013084;28;20181;-87
2023/06/09 07:38:37;;;;;;;14.10;12.48;;;20.30;67.20;;;;;;5013084;28;20252;-87
2023/06/09 07:41:03;;;;;;;20.33;14.10;;;20.40;67.30;;;;;;5014422;28;20169;-87
2023/06/09 07:43:28;;;;;;;20.33;14.50;;;20.50;67.40;;;;;;5012845;28;20692;-87
2023/06/09 07:45:54;;;;;;;18.80;14.15;;;20.60;67.40;;;;;;5013621;28;20269;-87
2023/06/09 07:48:20;;;;;;;18.67;15.68;;;20.70;66.80;;;;;;5012713;28;20177;-87
2023/06/09 07:50:45;;;;;;;20.80;15.63;;;20.80;65.20;;;;;;5014413;28;20180;-87
2023/06/09 07:53:11;;;;;;;17.50;15.68;;;20.90;64.40;;;;;;5012652;28;20225;-87
2023/06/09 07:55:37;;;;;;;20.85;17.02;;;21.00;65.60;;;;;;5014198;28;20212;-88
2023/06/09 07:58:02;;;;;;;20.15;16.48;;;21.00;64.60;;;;;;5011969;28;20339;-87
2023/06/09 08:00:28;;;;;;;20.33;17.75;;;21.20;64.50;;;;;;5013742;28;20169;-87
2023/06/09 08:03:03;;;;;;;19.08;17.00;;;21.20;62.50;;;;;;5012463;28;20224;-88
2023/06/09 08:05:30;;;;;;;18.88;16.88;;;21.40;64.50;;;;;;5012489;28;20596;-87
2023/06/09 08:07:57;;;;;;;18.20;16.35;;;21.50;63.40;;;;;;5012452;28;20200;-87
2023/06/09 08:10:23;;;;;;;21.00;17.23;;;21.50;61.70;;;;;;5012514;28;20177;-88
2023/06/09 08:12:52;;;;;;;20.48;17.15;;;21.70;63.80;;;;;;5013758;28;20216;-88
2023/06/09 08:15:18;;;;;;;18.52;16.73;;;21.80;64.00;;;;;;5013563;28;20173;-87
2023/06/09 08:17:44;;;;;;;17.38;14.40;;;21.90;61.30;;;;;;5013793;28;20547;-88
2023/06/09 08:20:10;;;;;;;20.02;16.08;;;22.00;60.20;;;;;;5013757;28;20197;-87
2023/06/09 08:22:36;;;;;;;17.73;14.68;;;22.10;60.10;;;;;;5013645;28;20268;-88
2023/06/09 08:25:02;;;;;;;17.15;15.40;;;22.20;59.30;;;;;;5013790;28;20687;-88
2023/06/09 08:27:28;;;;;;;22.15;16.25;;;22.40;58.80;;;;;;5013055;28;20268;-87
2023/06/09 08:29:56;;;;;;;17.25;15.60;;;22.60;57.20;;;;;;5012225;28;20273;-88
2023/06/09 08:32:22;;;;;;;18.77;15.93;;;22.70;55.40;;;;;;5013330;28;20615;-88
2023/06/09 08:34:48;;;;;;;17.83;15.77;;;22.70;54.30;;;;;;5012608;28;20181;-88
2023/06/09 08:37:15;;;;;;;17.83;16.00;;;22.80;54.50;;;;;;5012444;28;20236;-87
2023/06/09 08:39:40;;;;;;;17.17;15.38;;;23.00;53.20;;;;;;5012131;28;20678;-87
2023/06/09 08:42:22;;;;;;;22.30;15.48;;;23.00;52.00;;;;;;5012297;28;20201;-87
2023/06/09 08:44:50;;;;;;;20.10;16.15;;;23.20;53.20;;;;;;5013395;28;20228;-88
2023/06/09 08:47:20;;;;;;;17.73;15.85;;;23.20;52.80;;;;;;5013633;28;20545;-88
2023/06/09 08:49:48;;;;;;;17.17;15.63;;;23.20;51.60;;;;;;5012198;28;20177;-87
2023/06/09 08:52:13;;;;;;;17.40;15.70;;;23.30;52.20;;;;;;5012131;28;20197;-87
2023/06/09 08:55:37;;;;;;;17.30;15.70;;;23.40;51.50;;;;;;5012112;28;20193;-88
2023/06/09 08:59:33;;;;;;;17.20;15.40;;;23.40;49.60;;;;;;5013308;28;20224;-88
2023/06/09 09:02:10;;;;;;;19.67;16.27;;;23.60;49.70;;;;;;5006627;28;20217;-87
2023/06/09 09:04:38;;;;;;;18.55;16.33;;;23.70;50.70;;;;;;5012808;28;20177;-88
2023/06/09 09:10:47;;;;;;;17.60;16.08;;;23.90;51.90;;;;;;4995828;28;20657;-87
2023/06/09 09:13:13;;;;;;;18.27;15.68;;;24.00;50.00;;;;;;5015724;28;20240;-88
2023/06/09 09:15:49;;;;;;;17.40;15.80;;;24.20;47.20;;;;;;5017031;28;20197;-88
2023/06/09 09:18:16;;;;;;;17.10;15.60;;;24.00;47.10;;;;;;5016778;28;20741;-88
2023/06/09 09:20:42;;;;;;;17.83;16.13;;;24.20;47.60;;;;;;5016773;28;20169;-88
2023/06/09 09:23:07;;;;;;;16.88;15.40;;;24.20;47.00;;;;;;5015530;28;20205;-88
2023/06/09 09:25:33;;;;;;;17.75;16.25;;;24.20;46.00;;;;;;5016733;28;20177;-88
2023/06/09 09:28:08;;;;;;;18.63;16.88;;;24.30;45.70;;;;;;5016668;28;20173;-87
2023/06/09 09:30:50;;;;;;;18.85;17.13;;;24.40;46.30;;;;;;5016697;28;20165;-87
2023/06/09 09:33:19;;;;;;;18.15;16.58;;;24.50;47.30;;;;;;5016485;28;20569;-88
2023/06/09 09:35:49;;;;;;;18.25;16.55;;;24.60;44.70;;;;;;5016526;28;20173;-88
2023/06/09 09:38:18;;;;;;;18.80;16.55;;;24.90;45.60;;;;;;5015244;28;20200;-88
2023/06/09 09:40:45;;;;;;;18.55;16.80;;;24.90;44.00;;;;;;5016462;28;20166;-88
2023/06/09 09:43:11;;;;;;;18.55;16.80;;;25.00;44.50;;;;;;5015127;28;20194;-88
2023/06/09 09:45:39;;;;;;;17.27;15.60;;;25.10;41.20;;;;;;5015343;28;20177;-88
2023/06/09 09:48:09;;;;;;;18.30;16.40;;;24.90;41.60;;;;;;5014931;28;20560;-88
2023/06/09 09:50:36;;;;;;;18.23;16.67;;;24.90;40.70;;;;;;5014970;28;20177;-88
2023/06/09 09:53:05;;;;;;;18.73;16.92;;;25.20;43.10;;;;;;5016046;28;20189;-88
2023/06/09 09:55:33;;;;;;;18.65;16.80;;;25.20;43.60;;;;;;5014852;28;20224;-88
2023/06/09 09:58:03;;;;;;;18.73;17.02;;;25.30;44.00;;;;;;5016053;28;20201;-88
2023/06/09 10:00:29;;;;;;;18.55;16.70;;;25.30;40.80;;;;;;5014812;28;20173;-88
2023/06/09 10:02:59;;;;;;;17.63;16.02;;;25.30;41.60;;;;;;5016000;28;20557;-87
2023/06/09 10:05:28;;;;;;;18.23;16.73;;;25.40;42.20;;;;;;5015942;28;20173;-87
2023/06/09 10:07:57;;;;;;;17.40;15.90;;;25.50;40.10;;;;;;5016210;28;20174;-87
2023/06/09 10:10:26;;;;;;;17.63;16.17;;;25.50;41.20;;;;;;5015944;28;20180;-88
2023/06/09 10:12:53;;;;;;;18.23;16.38;;;25.50;39.90;;;;;;5014444;28;20209;-87
2023/06/09 10:15:20;;;;;;;17.63;16.10;;;25.40;39.50;;;;;;5015868;28;20179;-88
2023/06/09 10:17:48;;;;;;;17.25;15.80;;;25.60;40.20;;;;;;5014918;28;20208;-88
2023/06/09 10:20:14;;;;;;;18.15;16.42;;;25.70;39.30;;;;;;5015576;28;20180;-87
2023/06/09 10:22:41;;;;;;;18.15;16.38;;;25.70;42.30;;;;;;5014880;28;20193;-87
2023/06/09 10:25:08;;;;;;;19.15;15.75;;;25.70;40.30;;;;;;5014353;28;20553;-87
2023/06/09 10:27:34;;;;;;;18.48;16.85;;;25.70;42.30;;;;;;5015482;28;20327;-87
2023/06/09 10:30:01;;;;;;;17.80;16.40;;;25.80;39.90;;;;;;5015504;28;20549;-87
2023/06/09 10:32:30;;;;;;;17.95;16.10;;;25.80;40.40;;;;;;5014087;28;20702;-87
2023/06/09 10:34:58;;;;;;;18.42;16.85;;;25.90;40.40;;;;;;5015392;28;20216;-88
2023/06/09 10:37:31;;;;;;;18.27;16.70;;;25.90;39.40;;;;;;5015611;28;20686;-88
2023/06/09 10:40:24;;;;;;;19.17;17.35;;;26.20;40.50;;;;;;5015308;28;20312;-87
2023/06/09 10:43:20;;;;;;;18.23;16.60;;;26.40;40.40;;;;;;5014054;28;20197;-87
2023/06/09 10:45:53;;;;;;;18.92;17.05;;;26.40;41.60;;;;;;5014019;28;20166;-87
2023/06/09 10:48:44;;;;;;;18.83;17.23;;;26.30;40.50;;;;;;5014002;28;20197;-87
2023/06/09 10:51:28;;;;;;;17.85;16.25;;;26.20;40.40;;;;;;5014729;28;20169;-87
2023/06/09 10:54:15;;;;;;;18.83;17.13;;;26.30;38.70;;;;;;5014896;28;20215;-87
2023/06/09 10:56:41;;;;;;;18.48;16.70;;;26.30;38.20;;;;;;5013836;28;20234;-87
2023/06/09 10:59:25;;;;;;;17.83;16.20;;;26.70;40.40;;;;;;5013676;28;20570;-87
2023/06/09 11:02:00;;;;;;;19.27;16.23;;;26.60;38.50;;;;;;5015043;28;20248;-87
2023/06/09 11:04:43;;;;;;;17.65;16.02;;;26.60;38.50;;;;;;5013565;28;20184;-87
2023/06/09 11:07:22;;;;;;;18.23;15.90;;;26.60;38.70;;;;;;5013647;28;20220;-87
2023/06/09 11:09:50;;;;;;;20.80;19.33;;;26.70;37.30;;;;;;5014830;28;20181;-87
2023/06/09 11:12:25;;;;;;;19.88;18.40;;;26.70;38.90;;;;;;5013213;28;20219;-87
2023/06/09 11:14:53;;;;;;;20.40;18.98;;;27.00;38.30;;;;;;5014593;28;20711;-87
2023/06/09 11:17:25;;;;;;;21.77;20.05;;;26.80;35.40;;;;;;5013241;28;20186;-87
2023/06/09 11:20:11;;;;;;;22.92;19.63;;;26.70;38.00;;;;;;5014582;28;20161;-88
2023/06/09 11:22:47;;;;;;;21.85;19.80;;;26.70;36.60;;;;;;5014282;28;20236;-87
2023/06/09 11:25:19;;;;;;;21.85;19.80;;;26.80;36.90;;;;;;5014666;28;20150;-87
2023/06/09 11:27:56;;;;;;;20.60;18.90;;;27.00;37.00;;;;;;5014582;28;20182;-88
2023/06/09 11:30:23;;;;;;;21.02;19.40;;;26.90;36.10;;;;;;5013084;28;20221;-87
2023/06/09 11:33:03;;;;;;;19.92;18.25;;;27.00;35.70;;;;;;5013551;28;20193;-87
2023/06/09 11:35:28;;;;;;;17.83;16.45;;;26.90;36.00;;;;;;5014544;28;20173;-87
2023/06/09 11:38:11;;;;;;;15.15;13.75;;;27.00;35.80;;;;;;5014322;28;20563;-87
2023/06/09 11:40:39;;;;;;;14.25;12.95;;;26.80;36.20;;;;;;5013164;28;20169;-87
2023/06/09 11:43:09;;;;;;;14.75;13.52;;;26.80;34.00;;;;;;5013989;28;20197;-87
2023/06/09 11:45:36;;;;;;;14.30;13.05;;;26.80;35.30;;;;;;5014080;28;20180;-87
2023/06/09 11:48:05;;;;;;;15.20;13.95;;;26.90;33.50;;;;;;5014327;28;20211;-88
2023/06/09 11:50:44;;;;;;;14.02;12.95;;;27.20;32.70;;;;;;5012824;28;20174;-87
2023/06/09 11:53:15;;;;;;;14.80;13.50;;;27.20;31.90;;;;;;5012724;28;20197;-88
2023/06/09 11:55:41;;;;;;;16.05;14.55;;;27.20;31.10;;;;;;5012748;28;20170;-87
2023/06/09 11:58:12;;;;;;;17.23;14.07;;;27.60;34.40;;;;;;5012583;28;20584;-87
2023/06/09 12:00:40;;;;;;;14.82;13.50;;;27.50;34.80;;;;;;5012749;28;20535;-87
2023/06/09 12:03:06;;;;;;;15.23;13.73;;;27.60;32.90;;;;;;5013662;28;20185;-87
2023/06/09 12:05:32;;;;;;;15.27;14.07;;;27.40;32.10;;;;;;5013763;28;20670;-87
2023/06/09 12:07:58;;;;;;;15.60;14.30;;;27.30;31.80;;;;;;5013803;28;20213;-87
2023/06/09 12:10:27;;;;;;;15.02;13.88;;;27.40;31.80;;;;;;5012473;28;20181;-87
2023/06/09 12:12:55;;;;;;;15.13;13.93;;;27.20;31.50;;;;;;5012334;28;20307;-87
2023/06/09 12:15:22;;;;;;;14.77;13.57;;;27.40;30.70;;;;;;5013466;28;20177;-87
2023/06/09 12:17:53;;;;;;;15.07;13.77;;;27.50;29.50;;;;;;5012220;28;20679;-87
2023/06/09 12:20:35;;;;;;;14.43;13.32;;;27.60;30.90;;;;;;5013629;28;20571;-87
2023/06/09 12:23:12;;;;;;;14.70;13.32;;;27.80;30.70;;;;;;5012141;28;20229;-87
2023/06/09 12:25:50;;;;;;;14.25;13.15;;;27.70;30.20;;;;;;5012328;28;20165;-87
2023/06/09 12:28:23;;;;;;;14.60;13.32;;;27.70;29.50;;;;;;5013433;28;20160;-87
2023/06/09 12:30:56;;;;;;;13.73;12.63;;;27.70;30.20;;;;;;5012294;28;20196;-87
2023/06/09 12:33:23;;;;;;;14.55;13.35;;;27.90;32.20;;;;;;5012192;28;20228;-87
2023/06/09 12:36:04;;;;;;;15.50;14.10;;;28.00;29.90;;;;;;5012284;28;20177;-88
2023/06/09 12:38:35;;;;;;;15.80;14.45;;;28.00;30.70;;;;;;5012163;28;20193;-88
2023/06/09 12:41:06;;;;;;;16.70;15.20;;;28.10;30.20;;;;;;5012534;28;20173;-87